sensor_id;sensor_type;location;lat;lon;timestamp;pressure;altitude;pressure_sealevel;temperature;humidity
68489;BME280;55481;48.764;8.936;2023-09-19T00:05:14;96660;;;16.6;71.5
68489;BME280;55481;48.764;8.936;2023-09-19T00:19:20;96660;;;16.7;72.5
68489;BME280;55481;48.764;8.936;2023-09-19T00:23:48;96660;;;16.6;72
68489;BME280;55481;48.764;8.936;2023-09-19T00:26:19;96670;;;16.6;72
68489;BME280;55481;48.764;8.936;2023-09-19T00:28:52;96670;;;16.5;72
68489;BME280;55481;48.764;8.936;2023-09-19T00:31:20;96670;;;16.5;72
68489;BME280;55481;48.764;8.936;2023-09-19T00:33:52;96670;;;16.5;72
68489;BME280;55481;48.764;8.936;2023-09-19T00:36:22;96670;;;16.5;71.5
68489;BME280;55481;48.764;8.936;2023-09-19T00:38:52;96670;;;16.5;71.5
68489;BME280;55481;48.764;8.936;2023-09-19T00:41:23;96670;;;16.5;71.5
68489;BME280;55481;48.764;8.936;2023-09-19T00:43:54;96670;;;16.5;71.5
68489;BME280;55481;48.764;8.936;2023-09-19T00:51:26;96680;;;16.5;71.5
68489;BME280;55481;48.764;8.936;2023-09-19T00:53:57;96680;;;16.5;71.5
68489;BME280;55481;48.764;8.936;2023-09-19T00:56:28;96680;;;16.5;71.5
68489;BME280;55481;48.764;8.936;2023-09-19T00:58:58;96680;;;16.5;71.5
68489;BME280;55481;48.764;8.936;2023-09-19T01:01:29;96680;;;16.5;71.5
68489;BME280;55481;48.764;8.936;2023-09-19T01:04:01;96690;;;16.5;71.5
68489;BME280;55481;48.764;8.936;2023-09-19T01:14:15;96680;;;16.4;71.5
68489;BME280;55481;48.764;8.936;2023-09-19T01:16:50;96700;;;16.4;72
68489;BME280;55481;48.764;8.936;2023-09-19T01:19:19;96700;;;16.3;72
68489;BME280;55481;48.764;8.936;2023-09-19T01:21:51;96700;;;16.3;72
68489;BME280;55481;48.764;8.936;2023-09-19T01:24:17;96690;;;16.3;72
68489;BME280;55481;48.764;8.936;2023-09-19T01:26:52;96700;;;16.3;72
68489;BME280;55481;48.764;8.936;2023-09-19T01:36:41;96700;;;16.3;72
68489;BME280;55481;48.764;8.936;2023-09-19T01:39:11;96710;;;16.3;72
68489;BME280;55481;48.764;8.936;2023-09-19T01:41:51;96710;;;16.3;72
68489;BME280;55481;48.764;8.936;2023-09-19T01:44:15;96710;;;16.2;72
68489;BME280;55481;48.764;8.936;2023-09-19T01:49:24;96710;;;16.1;72
68489;BME280;55481;48.764;8.936;2023-09-19T01:52:23;96710;;;16.1;72
68489;BME280;55481;48.764;8.936;2023-09-19T02:01:48;96730;;;15.8;72.5
68489;BME280;55481;48.764;8.936;2023-09-19T02:04:19;96730;;;15.8;73
68489;BME280;55481;48.764;8.936;2023-09-19T02:09:20;96740;;;15.7;73
68489;BME280;55481;48.764;8.936;2023-09-19T02:11:51;96730;;;15.7;73
68489;BME280;55481;48.764;8.936;2023-09-19T02:19:24;96730;;;15.9;72.5
68489;BME280;55481;48.764;8.936;2023-09-19T02:21:55;96730;;;15.8;72.5
68489;BME280;55481;48.764;8.936;2023-09-19T02:27:09;96730;;;15.8;72.5
68489;BME280;55481;48.764;8.936;2023-09-19T02:29:39;96730;;;15.8;72.5
68489;BME280;55481;48.764;8.936;2023-09-19T02:32:03;96740;;;15.8;72.5
68489;BME280;55481;48.764;8.936;2023-09-19T02:34:34;96740;;;15.7;72.5
68489;BME280;55481;48.764;8.936;2023-09-19T02:37:05;96740;;;15.8;72.5
68489;BME280;55481;48.764;8.936;2023-09-19T02:44:44;96750;;;15.7;73
68489;BME280;55481;48.764;8.936;2023-09-19T02:47:14;96750;;;15.7;73
68489;BME280;55481;48.764;8.936;2023-09-19T02:49:45;96750;;;15.7;73
68489;BME280;55481;48.764;8.936;2023-09-19T02:52:14;96750;;;15.8;73
68489;BME280;55481;48.764;8.936;2023-09-19T02:57:08;96760;;;15.9;72.5
68489;BME280;55481;48.764;8.936;2023-09-19T02:59:39;96750;;;15.9;72.5
68489;BME280;55481;48.764;8.936;2023-09-19T03:02:17;96760;;;15.9;72.5
68489;BME280;55481;48.764;8.936;2023-09-19T03:04:49;96760;;;15.9;72.5
68489;BME280;55481;48.764;8.936;2023-09-19T03:10:02;96760;;;15.9;72.5
68489;BME280;55481;48.764;8.936;2023-09-19T03:12:19;96760;;;15.9;72.5
68489;BME280;55481;48.764;8.936;2023-09-19T03:17:13;96760;;;15.9;72.5
68489;BME280;55481;48.764;8.936;2023-09-19T03:19:44;96770;;;15.9;72.5
68489;BME280;55481;48.764;8.936;2023-09-19T03:22:15;96770;;;15.9;72.5
68489;BME280;55481;48.764;8.936;2023-09-19T03:24:46;96760;;;15.9;72.5
68489;BME280;55481;48.764;8.936;2023-09-19T03:27:17;96760;;;15.9;72.5
68489;BME280;55481;48.764;8.936;2023-09-19T03:29:55;96750;;;15.9;72.5
68489;BME280;55481;48.764;8.936;2023-09-19T03:34:50;96750;;;16.1;72.5
68489;BME280;55481;48.764;8.936;2023-09-19T03:39:58;96750;;;16.2;72
68489;BME280;55481;48.764;8.936;2023-09-19T03:42:28;96760;;;16.2;72
68489;BME280;55481;48.764;8.936;2023-09-19T03:44:59;96760;;;16.2;72
68489;BME280;55481;48.764;8.936;2023-09-19T03:49:53;96760;;;16.2;72
68489;BME280;55481;48.764;8.936;2023-09-19T03:52:24;96760;;;16.2;72
68489;BME280;55481;48.764;8.936;2023-09-19T03:55:03;96760;;;16.2;72
68489;BME280;55481;48.764;8.936;2023-09-19T03:57:33;96760;;;16.3;72
68489;BME280;55481;48.764;8.936;2023-09-19T04:02:28;96750;;;16.3;72
68489;BME280;55481;48.764;8.936;2023-09-19T04:05:00;96750;;;16.3;72
68489;BME280;55481;48.764;8.936;2023-09-19T04:10:07;96750;;;16.2;72.5
68489;BME280;55481;48.764;8.936;2023-09-19T04:12:37;96750;;;16.3;72.5
68489;BME280;55481;48.764;8.936;2023-09-19T04:15:07;96760;;;16.2;72.5
68489;BME280;55481;48.764;8.936;2023-09-19T04:17:32;96760;;;16.2;72.5
68489;BME280;55481;48.764;8.936;2023-09-19T04:20:04;96760;;;16.3;72.5
68489;BME280;55481;48.764;8.936;2023-09-19T04:22:40;96760;;;16.3;72.5
68489;BME280;55481;48.764;8.936;2023-09-19T04:25:12;96760;;;16.3;72.5
68489;BME280;55481;48.764;8.936;2023-09-19T04:30:07;96770;;;16.4;72
68489;BME280;55481;48.764;8.936;2023-09-19T04:35:15;96780;;;16.4;72.5
68489;BME280;55481;48.764;8.936;2023-09-19T04:37:46;96790;;;16.2;72.5
68489;BME280;55481;48.764;8.936;2023-09-19T04:40:09;96800;;;16;73
68489;BME280;55481;48.764;8.936;2023-09-19T04:42:40;96800;;;15.7;73.5
68489;BME280;55481;48.764;8.936;2023-09-19T04:45:11;96800;;;15.6;74
68489;BME280;55481;48.764;8.936;2023-09-19T04:47:42;96800;;;15.6;74
68489;BME280;55481;48.764;8.936;2023-09-19T04:50:19;96810;;;15.6;73.5
68489;BME280;55481;48.764;8.936;2023-09-19T04:52:51;96810;;;15.6;73.5
68489;BME280;55481;48.764;8.936;2023-09-19T04:57:46;96810;;;15.5;73.5
68489;BME280;55481;48.764;8.936;2023-09-19T05:00:17;96810;;;15.4;74
68489;BME280;55481;48.764;8.936;2023-09-19T05:02:49;96810;;;15.5;73.5
68489;BME280;55481;48.764;8.936;2023-09-19T05:05:19;96820;;;15.6;73.5
68489;BME280;55481;48.764;8.936;2023-09-19T05:07:50;96820;;;15.6;73.5
68489;BME280;55481;48.764;8.936;2023-09-19T05:10:21;96820;;;15.5;73.5
68489;BME280;55481;48.764;8.936;2023-09-19T05:12:53;96820;;;15.6;73
68489;BME280;55481;48.764;8.936;2023-09-19T05:15:23;96820;;;15.6;73.5
68489;BME280;55481;48.764;8.936;2023-09-19T05:25:46;96850;;;15.7;73
68489;BME280;55481;48.764;8.936;2023-09-19T05:28:04;96860;;;15.6;73
68489;BME280;55481;48.764;8.936;2023-09-19T05:32:58;96850;;;15.3;73.5
68489;BME280;55481;48.764;8.936;2023-09-19T05:35:28;96860;;;15.3;74
68489;BME280;55481;48.764;8.936;2023-09-19T05:37:59;96860;;;15.2;74
68489;BME280;55481;48.764;8.936;2023-09-19T05:40:37;96870;;;15.2;74
68489;BME280;55481;48.764;8.936;2023-09-19T05:43:01;96880;;;15.2;73.5
68489;BME280;55481;48.764;8.936;2023-09-19T05:47:56;96890;;;14.8;74
68489;BME280;55481;48.764;8.936;2023-09-19T05:50:27;96900;;;14.6;74.5
68489;BME280;55481;48.764;8.936;2023-09-19T05:52:57;96900;;;14.6;74.5
68489;BME280;55481;48.764;8.936;2023-09-19T05:55:28;96900;;;14.5;74.5
68489;BME280;55481;48.764;8.936;2023-09-19T05:58:04;96900;;;14.5;74.5
68489;BME280;55481;48.764;8.936;2023-09-19T06:00:30;96910;;;14.5;74.5
68489;BME280;55481;48.764;8.936;2023-09-19T06:03:01;96910;;;14.6;74
68489;BME280;55481;48.764;8.936;2023-09-19T06:05:31;96910;;;14.6;74
68489;BME280;55481;48.764;8.936;2023-09-19T06:18:12;96920;;;14.6;74
68489;BME280;55481;48.764;8.936;2023-09-19T06:20:42;96920;;;14.9;73.5
68489;BME280;55481;48.764;8.936;2023-09-19T06:23:13;96930;;;14.9;73.5
68489;BME280;55481;48.764;8.936;2023-09-19T06:25:44;96920;;;15;73.5
68489;BME280;55481;48.764;8.936;2023-09-19T06:28:22;96920;;;15;73.5
68489;BME280;55481;48.764;8.936;2023-09-19T06:30:54;96930;;;15;73.5
68489;BME280;55481;48.764;8.936;2023-09-19T06:35:49;96930;;;15.1;73.5
68489;BME280;55481;48.764;8.936;2023-09-19T06:38:19;96920;;;15.2;73
68489;BME280;55481;48.764;8.936;2023-09-19T06:43:28;96920;;;15.4;73
68489;BME280;55481;48.764;8.936;2023-09-19T06:45:57;96930;;;15.6;72.5
68489;BME280;55481;48.764;8.936;2023-09-19T06:48:21;96920;;;15.7;72
68489;BME280;55481;48.764;8.936;2023-09-19T06:50:53;96930;;;15.8;72
68489;BME280;55481;48.764;8.936;2023-09-19T06:53:23;96940;;;15.8;72
68489;BME280;55481;48.764;8.936;2023-09-19T06:55:54;96940;;;15.8;72.5
68489;BME280;55481;48.764;8.936;2023-09-19T06:58:32;96940;;;15.8;72.5
68489;BME280;55481;48.764;8.936;2023-09-19T07:01:08;96950;;;15.8;72.5
68489;BME280;55481;48.764;8.936;2023-09-19T07:03:45;96940;;;15.8;72.5
68489;BME280;55481;48.764;8.936;2023-09-19T07:08:26;96950;;;15.9;72.5
68489;BME280;55481;48.764;8.936;2023-09-19T07:10:57;96960;;;15.9;72.5
68489;BME280;55481;48.764;8.936;2023-09-19T07:15:52;96960;;;15.8;73
68489;BME280;55481;48.764;8.936;2023-09-19T07:18:23;96970;;;15.8;73
68489;BME280;55481;48.764;8.936;2023-09-19T07:25:56;96960;;;16.1;72.5
68489;BME280;55481;48.764;8.936;2023-09-19T07:28:26;96960;;;16.1;72.5
68489;BME280;55481;48.764;8.936;2023-09-19T07:31:05;96970;;;16.1;72.5
68489;BME280;55481;48.764;8.936;2023-09-19T07:36:11;96960;;;16.3;72
68489;BME280;55481;48.764;8.936;2023-09-19T07:38:41;96970;;;16.4;72
68489;BME280;55481;48.764;8.936;2023-09-19T07:43:35;96970;;;16.5;72
68489;BME280;55481;48.764;8.936;2023-09-19T07:46:06;96980;;;16.8;71.5
68489;BME280;55481;48.764;8.936;2023-09-19T07:48:37;96970;;;17.1;71
68489;BME280;55481;48.764;8.936;2023-09-19T07:51:08;96970;;;17.5;70
68489;BME280;55481;48.764;8.936;2023-09-19T07:56:22;96970;;;18.3;68.5
68489;BME280;55481;48.764;8.936;2023-09-19T07:59:00;96970;;;18.4;68.5
68489;BME280;55481;48.764;8.936;2023-09-19T08:01:16;96970;;;18.3;69.5
68489;BME280;55481;48.764;8.936;2023-09-19T08:03:47;96980;;;18.1;70
68489;BME280;55481;48.764;8.936;2023-09-19T08:06:17;96980;;;18;70.5
68489;BME280;55481;48.764;8.936;2023-09-19T08:08:41;96980;;;18;71
68489;BME280;55481;48.764;8.936;2023-09-19T08:11:12;96990;;;18.1;70.5
68489;BME280;55481;48.764;8.936;2023-09-19T08:13:43;96990;;;18.1;70.5
68489;BME280;55481;48.764;8.936;2023-09-19T08:16:15;96990;;;18.2;70.5
68489;BME280;55481;48.764;8.936;2023-09-19T08:18:52;96990;;;18.3;70.5
68489;BME280;55481;48.764;8.936;2023-09-19T08:21:23;96990;;;18.6;70
68489;BME280;55481;48.764;8.936;2023-09-19T08:26:18;97000;;;18.6;70
68489;BME280;55481;48.764;8.936;2023-09-19T08:28:49;97000;;;18.5;70.5
68489;BME280;55481;48.764;8.936;2023-09-19T08:31:20;97000;;;18.6;70.5
68489;BME280;55481;48.764;8.936;2023-09-19T08:33:58;97000;;;18.7;70
68489;BME280;55481;48.764;8.936;2023-09-19T08:36:28;97000;;;18.9;70
68489;BME280;55481;48.764;8.936;2023-09-19T08:38:58;97000;;;18.9;70
68489;BME280;55481;48.764;8.936;2023-09-19T08:43:51;97010;;;18.1;72.5
68489;BME280;55481;48.764;8.936;2023-09-19T08:46:30;97010;;;18.6;71
68489;BME280;55481;48.764;8.936;2023-09-19T08:49:03;97010;;;18.8;70.5
68489;BME280;55481;48.764;8.936;2023-09-19T08:56:33;97000;;;19.4;69
68489;BME280;55481;48.764;8.936;2023-09-19T08:59:03;97010;;;19.6;68.5
68489;BME280;55481;48.764;8.936;2023-09-19T09:01:33;97010;;;19.6;69
68489;BME280;55481;48.764;8.936;2023-09-19T09:04:03;97010;;;19.9;68.5
68489;BME280;55481;48.764;8.936;2023-09-19T09:06:33;97010;;;20;68.5
68489;BME280;55481;48.764;8.936;2023-09-19T09:09:04;97010;;;20;68.5
68489;BME280;55481;48.764;8.936;2023-09-19T09:11:28;97010;;;19.9;69
68489;BME280;55481;48.764;8.936;2023-09-19T09:14:06;97010;;;20;69
68489;BME280;55481;48.764;8.936;2023-09-19T09:21:52;97010;;;19.9;69.5
68489;BME280;55481;48.764;8.936;2023-09-19T09:25:12;97010;;;20;69.5
68489;BME280;55481;48.764;8.936;2023-09-19T09:26:41;97010;;;20.3;69
68489;BME280;55481;48.764;8.936;2023-09-19T09:29:09;97000;;;20.2;69
68489;BME280;55481;48.764;8.936;2023-09-19T09:31:39;97000;;;20.3;69
68489;BME280;55481;48.764;8.936;2023-09-19T09:34:10;97010;;;20.3;69
68489;BME280;55481;48.764;8.936;2023-09-19T09:36:40;97010;;;20.1;69.5
68489;BME280;55481;48.764;8.936;2023-09-19T09:39:10;97010;;;20.1;69.5
68489;BME280;55481;48.764;8.936;2023-09-19T09:41:46;97010;;;20.2;69.5
68489;BME280;55481;48.764;8.936;2023-09-19T09:44:23;97010;;;20.6;68.5
68489;BME280;55481;48.764;8.936;2023-09-19T09:49:04;97010;;;20.4;69
68489;BME280;55481;48.764;8.936;2023-09-19T09:51:35;97010;;;20.5;69
68489;BME280;55481;48.764;8.936;2023-09-19T09:56:31;97020;;;20.5;69
68489;BME280;55481;48.764;8.936;2023-09-19T09:59:01;97020;;;20.4;69
68489;BME280;55481;48.764;8.936;2023-09-19T10:01:47;97020;;;20.1;70
68489;BME280;55481;48.764;8.936;2023-09-19T10:04:05;97020;;;19.9;70.5
68489;BME280;55481;48.764;8.936;2023-09-19T10:06:40;97020;;;20.4;69.5
68489;BME280;55481;48.764;8.936;2023-09-19T10:09:06;97020;;;20.8;68
68489;BME280;55481;48.764;8.936;2023-09-19T10:11:35;97010;;;20.6;68.5
68489;BME280;55481;48.764;8.936;2023-09-19T10:14:05;97010;;;19.6;71
68489;BME280;55481;48.764;8.936;2023-09-19T10:16:36;97020;;;19.1;72.5
68489;BME280;55481;48.764;8.936;2023-09-19T10:24:08;97010;;;21;67.5
68489;BME280;55481;48.764;8.936;2023-09-19T10:29:16;97000;;;20.3;69.5
68489;BME280;55481;48.764;8.936;2023-09-19T10:31:47;97010;;;20.7;68.5
68489;BME280;55481;48.764;8.936;2023-09-19T10:34:18;97010;;;20.3;69.5
68489;BME280;55481;48.764;8.936;2023-09-19T10:36:44;97010;;;20.4;69.5
68489;BME280;55481;48.764;8.936;2023-09-19T10:39:14;97010;;;20.4;69.5
68489;BME280;55481;48.764;8.936;2023-09-19T10:41:47;97000;;;20.5;69
68489;BME280;55481;48.764;8.936;2023-09-19T10:44:15;97010;;;20.9;68
68489;BME280;55481;48.764;8.936;2023-09-19T10:51:47;97000;;;20.9;68.5
68489;BME280;55481;48.764;8.936;2023-09-19T10:54:18;97010;;;21;68.5
68489;BME280;55481;48.764;8.936;2023-09-19T10:56:49;97010;;;21.1;68
68489;BME280;55481;48.764;8.936;2023-09-19T10:59:26;97000;;;21.1;68
68489;BME280;55481;48.764;8.936;2023-09-19T11:01:57;97000;;;21;68.5
68489;BME280;55481;48.764;8.936;2023-09-19T11:04:30;97000;;;21.4;67.5
68489;BME280;55481;48.764;8.936;2023-09-19T11:06:59;96990;;;21.7;66.5
68489;BME280;55481;48.764;8.936;2023-09-19T11:10:01;96980;;;22;66
68489;BME280;55481;48.764;8.936;2023-09-19T11:11:54;96990;;;22.1;66
68489;BME280;55481;48.764;8.936;2023-09-19T11:21:58;96980;;;22.5;66
68489;BME280;55481;48.764;8.936;2023-09-19T11:24:28;96980;;;22.6;65.5
68489;BME280;55481;48.764;8.936;2023-09-19T11:27:14;96980;;;23;65
68489;BME280;55481;48.764;8.936;2023-09-19T11:29:29;96980;;;22.8;65.5
68489;BME280;55481;48.764;8.936;2023-09-19T11:32:00;96970;;;23.1;65
68489;BME280;55481;48.764;8.936;2023-09-19T11:34:39;96970;;;23.2;65
68489;BME280;55481;48.764;8.936;2023-09-19T11:38:02;96970;;;23.3;65.5
68489;BME280;55481;48.764;8.936;2023-09-19T11:39:39;96970;;;23;66.5
68489;BME280;55481;48.764;8.936;2023-09-19T11:44:48;96960;;;24.2;64
68489;BME280;55481;48.764;8.936;2023-09-19T11:49:55;96960;;;25.2;61.5
68489;BME280;55481;48.764;8.936;2023-09-19T11:52:32;96960;;;25.7;61
68489;BME280;55481;48.764;8.936;2023-09-19T11:57:13;96950;;;26.2;60.5
68489;BME280;55481;48.764;8.936;2023-09-19T11:59:44;96950;;;26;61
68489;BME280;55481;48.764;8.936;2023-09-19T12:04:39;96940;;;26.4;60.5
68489;BME280;55481;48.764;8.936;2023-09-19T12:14:42;96950;;;25.9;62.5
68489;BME280;55481;48.764;8.936;2023-09-19T12:17:12;96930;;;25.6;63.5
68489;BME280;55481;48.764;8.936;2023-09-19T12:19:51;96940;;;25.8;62.5
68489;BME280;55481;48.764;8.936;2023-09-19T12:25:05;96930;;;26.1;62
68489;BME280;55481;48.764;8.936;2023-09-19T12:27:27;96930;;;26.3;61.5
68489;BME280;55481;48.764;8.936;2023-09-19T12:29:51;96940;;;25.2;64
68489;BME280;55481;48.764;8.936;2023-09-19T12:32:37;96930;;;25.4;63.5
68489;BME280;55481;48.764;8.936;2023-09-19T12:34:53;96930;;;25.5;63
68489;BME280;55481;48.764;8.936;2023-09-19T12:42:20;96950;;;21.7;70.5
68489;BME280;55481;48.764;8.936;2023-09-19T12:47:21;96940;;;22.6;68.5
68489;BME280;55481;48.764;8.936;2023-09-19T12:52:33;96920;;;25.4;61
68489;BME280;55481;48.764;8.936;2023-09-19T12:55:00;96930;;;23.9;64
68489;BME280;55481;48.764;8.936;2023-09-19T12:57:30;96930;;;24.8;63
68489;BME280;55481;48.764;8.936;2023-09-19T13:00:02;96910;;;26.5;59
68489;BME280;55481;48.764;8.936;2023-09-19T13:03:09;96920;;;26.2;60
68489;BME280;55481;48.764;8.936;2023-09-19T13:05:09;96920;;;25.9;60.5
68489;BME280;55481;48.764;8.936;2023-09-19T13:10:04;96920;;;24.1;65.5
68489;BME280;55481;48.764;8.936;2023-09-19T13:12:37;96920;;;25;63
68489;BME280;55481;48.764;8.936;2023-09-19T13:15:09;96920;;;25.9;60.5
68489;BME280;55481;48.764;8.936;2023-09-19T13:17:44;96910;;;25.9;60.5
68489;BME280;55481;48.764;8.936;2023-09-19T13:20:20;96910;;;26.2;60.5
68489;BME280;55481;48.764;8.936;2023-09-19T13:25:02;96910;;;27.1;58.5
68489;BME280;55481;48.764;8.936;2023-09-19T13:35:06;96900;;;27.8;57.5
68489;BME280;55481;48.764;8.936;2023-09-19T13:37:38;96900;;;28.3;56.5
68489;BME280;55481;48.764;8.936;2023-09-19T13:40:08;96900;;;27.7;57.5
68489;BME280;55481;48.764;8.936;2023-09-19T13:42:51;96890;;;27.3;59
68489;BME280;55481;48.764;8.936;2023-09-19T13:45:21;96890;;;27.4;58.5
68489;BME280;55481;48.764;8.936;2023-09-19T13:47:52;96890;;;27.7;58
68489;BME280;55481;48.764;8.936;2023-09-19T13:50:22;96890;;;27.9;57.5
68489;BME280;55481;48.764;8.936;2023-09-19T13:55:16;96890;;;26.3;60.5
68489;BME280;55481;48.764;8.936;2023-09-19T13:57:54;96900;;;26.4;60
68489;BME280;55481;48.764;8.936;2023-09-19T14:00:25;96890;;;26.8;59.5
68489;BME280;55481;48.764;8.936;2023-09-19T14:05:20;96880;;;28.8;54.5
68489;BME280;55481;48.764;8.936;2023-09-19T14:07:51;96890;;;28.3;55.5
68489;BME280;55481;48.764;8.936;2023-09-19T14:10:22;96890;;;28.7;54.5
68489;BME280;55481;48.764;8.936;2023-09-19T14:12:53;96880;;;29.2;53.5
68489;BME280;55481;48.764;8.936;2023-09-19T14:15:30;96880;;;29.1;54
68489;BME280;55481;48.764;8.936;2023-09-19T14:18:07;96880;;;28.3;55.5
68489;BME280;55481;48.764;8.936;2023-09-19T14:20:24;96890;;;25.3;62
68489;BME280;55481;48.764;8.936;2023-09-19T14:23:01;96900;;;24.2;64
68489;BME280;55481;48.764;8.936;2023-09-19T14:25:34;96890;;;25.1;62
68489;BME280;55481;48.764;8.936;2023-09-19T14:28:04;96880;;;27.3;56.5
68489;BME280;55481;48.764;8.936;2023-09-19T14:35:37;96860;;;29.7;51.5
68489;BME280;55481;48.764;8.936;2023-09-19T14:38:06;96860;;;29.6;52
68489;BME280;55481;48.764;8.936;2023-09-19T14:40:36;96860;;;29.3;52.5
68489;BME280;55481;48.764;8.936;2023-09-19T14:45:30;96870;;;27.6;55.5
68489;BME280;55481;48.764;8.936;2023-09-19T14:48:01;96870;;;25.3;60.5
68489;BME280;55481;48.764;8.936;2023-09-19T14:50:38;96880;;;24.8;61.5
68489;BME280;55481;48.764;8.936;2023-09-19T14:58:11;96870;;;25.5;58
68489;BME280;55481;48.764;8.936;2023-09-19T15:00:41;96870;;;25;59.5
68489;BME280;55481;48.764;8.936;2023-09-19T15:05:34;96870;;;25.3;57.5
68489;BME280;55481;48.764;8.936;2023-09-19T15:08:05;96880;;;24.9;58.5
68489;BME280;55481;48.764;8.936;2023-09-19T15:10:36;96880;;;24.8;58
68489;BME280;55481;48.764;8.936;2023-09-19T15:13:08;96880;;;25.5;56.5
68489;BME280;55481;48.764;8.936;2023-09-19T15:18:22;96880;;;24.7;57.5
68489;BME280;55481;48.764;8.936;2023-09-19T15:23:18;96880;;;23.9;58.5
68489;BME280;55481;48.764;8.936;2023-09-19T15:25:48;96880;;;23.8;58.5
68489;BME280;55481;48.764;8.936;2023-09-19T15:28:16;96880;;;23.6;58.5
68489;BME280;55481;48.764;8.936;2023-09-19T15:30:47;96870;;;23.3;59
68489;BME280;55481;48.764;8.936;2023-09-19T15:33:10;96870;;;22.5;60.5
68489;BME280;55481;48.764;8.936;2023-09-19T15:35:42;96860;;;22.5;60
68489;BME280;55481;48.764;8.936;2023-09-19T15:38:19;96860;;;22.7;59.5
68489;BME280;55481;48.764;8.936;2023-09-19T15:46:05;96850;;;22.6;59
68489;BME280;55481;48.764;8.936;2023-09-19T15:48:23;96850;;;22.5;59
68489;BME280;55481;48.764;8.936;2023-09-19T15:53:15;96850;;;22.2;59
68489;BME280;55481;48.764;8.936;2023-09-19T15:55:47;96850;;;22.1;59.5
68489;BME280;55481;48.764;8.936;2023-09-19T15:58:17;96850;;;21.9;59.5
68489;BME280;55481;48.764;8.936;2023-09-19T16:00:48;96850;;;21.9;59.5
68489;BME280;55481;48.764;8.936;2023-09-19T16:03:19;96850;;;21.9;59.5
68489;BME280;55481;48.764;8.936;2023-09-19T16:05:57;96850;;;21.7;59.5
68489;BME280;55481;48.764;8.936;2023-09-19T16:08:29;96850;;;21.6;60
68489;BME280;55481;48.764;8.936;2023-09-19T16:10:52;96850;;;21.6;59.5
68489;BME280;55481;48.764;8.936;2023-09-19T16:13:23;96850;;;21.4;60
68489;BME280;55481;48.764;8.936;2023-09-19T16:15:54;96850;;;21.4;60
68489;BME280;55481;48.764;8.936;2023-09-19T16:18:26;96840;;;21.3;60
68489;BME280;55481;48.764;8.936;2023-09-19T16:23:20;96840;;;21.1;60
68489;BME280;55481;48.764;8.936;2023-09-19T16:33:23;96850;;;20.9;60
68489;BME280;55481;48.764;8.936;2023-09-19T16:35:54;96850;;;20.9;60
68489;BME280;55481;48.764;8.936;2023-09-19T16:38:35;96860;;;20.8;60
68489;BME280;55481;48.764;8.936;2023-09-19T16:43:40;96850;;;20.8;60
68489;BME280;55481;48.764;8.936;2023-09-19T16:46:09;96850;;;20.8;60
68489;BME280;55481;48.764;8.936;2023-09-19T16:48:34;96840;;;20.7;60
68489;BME280;55481;48.764;8.936;2023-09-19T16:51:05;96850;;;20.5;60
68489;BME280;55481;48.764;8.936;2023-09-19T16:53:37;96850;;;20.5;60.5
68489;BME280;55481;48.764;8.936;2023-09-19T16:56:13;96840;;;20.4;60
68489;BME280;55481;48.764;8.936;2023-09-19T17:01:01;96840;;;20.4;60
68489;BME280;55481;48.764;8.936;2023-09-19T17:03:32;96840;;;20.3;60
68489;BME280;55481;48.764;8.936;2023-09-19T17:06:02;96840;;;20.2;60.5
68489;BME280;55481;48.764;8.936;2023-09-19T17:08:34;96850;;;20.2;60
68489;BME280;55481;48.764;8.936;2023-09-19T17:11:05;96850;;;20.1;60.5
68489;BME280;55481;48.764;8.936;2023-09-19T17:13:35;96850;;;20;60.5
68489;BME280;55481;48.764;8.936;2023-09-19T17:16:06;96850;;;19.9;60.5
68489;BME280;55481;48.764;8.936;2023-09-19T17:18:36;96850;;;19.8;60.5
68489;BME280;55481;48.764;8.936;2023-09-19T17:31:17;96860;;;19.4;61
68489;BME280;55481;48.764;8.936;2023-09-19T17:33:47;96860;;;19.3;61
68489;BME280;55481;48.764;8.936;2023-09-19T17:36:19;96860;;;19.1;61.5
68489;BME280;55481;48.764;8.936;2023-09-19T17:38:43;96860;;;19;61.5
68489;BME280;55481;48.764;8.936;2023-09-19T17:48:45;96870;;;18.6;62
68489;BME280;55481;48.764;8.936;2023-09-19T17:51:15;96870;;;18.4;62
68489;BME280;55481;48.764;8.936;2023-09-19T17:53:46;96870;;;18.3;62
68489;BME280;55481;48.764;8.936;2023-09-19T17:56:17;96870;;;18.3;62
68489;BME280;55481;48.764;8.936;2023-09-19T18:04:02;96880;;;18;62
68489;BME280;55481;48.764;8.936;2023-09-19T18:09:15;96890;;;19.3;59.5
68489;BME280;55481;48.764;8.936;2023-09-19T18:11:32;96890;;;19.9;58
68489;BME280;55481;48.764;8.936;2023-09-19T18:14:02;96880;;;20.4;57
68489;BME280;55481;48.764;8.936;2023-09-19T18:18:56;96890;;;19.9;58
68489;BME280;55481;48.764;8.936;2023-09-19T18:21:27;96890;;;19.6;59
68489;BME280;55481;48.764;8.936;2023-09-19T18:23:59;96890;;;19.7;59
68489;BME280;55481;48.764;8.936;2023-09-19T18:26:29;96890;;;19.6;59
68489;BME280;55481;48.764;8.936;2023-09-19T18:29:07;96900;;;19.2;60
68489;BME280;55481;48.764;8.936;2023-09-19T18:34:02;96900;;;18.6;61
68489;BME280;55481;48.764;8.936;2023-09-19T18:39:10;96910;;;18.6;61
68489;BME280;55481;48.764;8.936;2023-09-19T18:41:40;96900;;;18.9;60
68489;BME280;55481;48.764;8.936;2023-09-19T18:44:10;96910;;;18.8;60.5
68489;BME280;55481;48.764;8.936;2023-09-19T18:49:04;96910;;;18.3;61
68489;BME280;55481;48.764;8.936;2023-09-19T18:51:35;96910;;;17.8;62.5
68489;BME280;55481;48.764;8.936;2023-09-19T18:54:12;96910;;;17.5;63
68489;BME280;55481;48.764;8.936;2023-09-19T19:01:58;96920;;;17.7;62
68489;BME280;55481;48.764;8.936;2023-09-19T19:04:16;96930;;;17.6;62
68489;BME280;55481;48.764;8.936;2023-09-19T19:09:17;96930;;;17.2;63
68489;BME280;55481;48.764;8.936;2023-09-19T19:11:57;96940;;;17;63.5
68489;BME280;55481;48.764;8.936;2023-09-19T19:16:40;96940;;;16.5;64
68489;BME280;55481;48.764;8.936;2023-09-19T19:19:18;96940;;;16.5;64
68489;BME280;55481;48.764;8.936;2023-09-19T19:21:49;96940;;;16.5;64
68489;BME280;55481;48.764;8.936;2023-09-19T19:24:20;96940;;;16.5;63.5
68489;BME280;55481;48.764;8.936;2023-09-19T19:29:08;96950;;;16.4;63.5
68489;BME280;55481;48.764;8.936;2023-09-19T19:31:42;96950;;;16.3;64
68489;BME280;55481;48.764;8.936;2023-09-19T19:34:09;96950;;;16.1;64
68489;BME280;55481;48.764;8.936;2023-09-19T19:36:41;96950;;;16.1;64
68489;BME280;55481;48.764;8.936;2023-09-19T19:39:11;96950;;;16.1;64
68489;BME280;55481;48.764;8.936;2023-09-19T19:41:42;96960;;;16.1;64